createdAt,value
2019-04-22T00:00:36.662Z,44.39
2019-04-22T00:03:10.545Z,43.90
2019-04-22T00:05:56.288Z,44.67
2019-04-22T00:08:36.288Z,44.37
2019-04-22T00:11:04.898Z,43.89
2019-04-22T00:13:43.897Z,43.44
2019-04-22T00:16:01.091Z,42.95
2019-04-22T00:18:42.859Z,43.16
2019-04-22T00:21:12.547Z,43.38
2019-04-22T00:23:41.868Z,43.74
2019-04-22T00:26:12.636Z,43.93
2019-04-22T00:28:43.725Z,44.88
2019-04-22T00:31:40.578Z,45.33
2019-04-22T00:34:11.181Z,45.53
2019-04-22T00:36:51.484Z,45.03
2019-04-22T00:39:25.433Z,44.96
2019-04-22T00:41:53.597Z,45.29
2019-04-22T00:44:29.820Z,44.52
2019-04-22T00:46:55.206Z,44.83
2019-04-22T00:50:10.906Z,45.75
2019-04-22T00:52:01.223Z,45.79
2019-04-22T00:54:21.402Z,46.05
2019-04-22T00:56:53.967Z,45.76
2019-04-22T00:59:23.354Z,46.08
2019-04-22T01:02:00.905Z,46.71
2019-04-22T01:04:34.774Z,46.74
2019-04-22T01:07:00.733Z,46.59
2019-04-22T01:09:40.163Z,46.09
2019-04-22T01:12:07.537Z,46.50
2019-04-22T01:14:35.630Z,47.69
2019-04-22T01:17:05.993Z,47.89
2019-04-22T01:19:48.265Z,48.01
2019-04-22T01:22:12.959Z,47.99
2019-04-22T01:24:38.678Z,48.05
2019-04-22T01:27:07.966Z,48.09
2019-04-22T01:29:39.714Z,47.19
2019-04-22T01:31:58.098Z,46.38
2019-04-22T01:34:40.092Z,45.77
2019-04-22T01:37:20.330Z,44.85
2019-04-22T01:40:00.146Z,44.45
2019-04-22T01:42:24.588Z,44.20
2019-04-22T01:44:58.167Z,44.26
2019-04-22T01:47:31.349Z,43.87
2019-04-22T01:49:59.817Z,45.20
2019-04-22T01:52:31.376Z,46.33
2019-04-22T01:57:30.415Z,48.79
2019-04-22T02:00:00.923Z,49.52
2019-04-22T02:02:44.057Z,49.71
2019-04-22T02:05:15.782Z,49.43
2019-04-22T02:07:41.946Z,48.39
2019-04-22T02:10:14.000Z,49.74
2019-04-22T02:15:12.497Z,50.03
2019-04-22T02:17:47.766Z,49.54
2019-04-22T02:20:34.711Z,48.83
2019-04-22T02:26:03.339Z,47.16
2019-04-22T02:28:38.304Z,46.62
2019-04-22T02:31:23.070Z,46.21
2019-04-22T02:43:51.861Z,51.16
2019-04-22T02:51:16.862Z,55.43
2019-04-22T02:54:17.213Z,55.08
2019-04-22T03:04:03.369Z,53.32
2019-04-22T03:08:53.761Z,50.24
2019-04-22T03:14:00.715Z,47.84
2019-04-22T03:21:23.861Z,59.37
2019-04-22T03:26:31.936Z,58.50
2019-04-22T03:28:57.071Z,57.70
2019-04-22T03:52:11.597Z,54.94
2019-04-22T04:02:21.600Z,57.96
2019-04-22T04:04:43.159Z,57.86
2019-04-22T04:10:00.994Z,57.05
2019-04-22T04:12:24.986Z,56.07
2019-04-22T04:15:11.664Z,55.37
2019-04-22T04:20:05.743Z,54.87
2019-04-22T04:22:53.782Z,53.46
2019-04-22T04:27:49.117Z,53.81
2019-04-22T04:30:05.500Z,58.45
2019-04-22T04:35:19.311Z,56.67
2019-04-22T04:45:23.989Z,59.45
2019-04-22T04:50:06.882Z,61.11
2019-04-22T04:55:17.527Z,60.50
2019-04-22T05:02:44.605Z,60.39
2019-04-22T05:05:16.715Z,61.68
2019-04-22T05:07:47.850Z,61.22
2019-04-22T05:10:31.491Z,61.11
2019-04-22T05:12:52.771Z,62.31
2019-04-22T05:15:20.491Z,63.81
2019-04-22T05:17:52.361Z,64.93
2019-04-22T05:20:26.575Z,65.00
2019-04-22T05:25:19.573Z,62.68
2019-04-22T05:27:45.349Z,60.85
2019-04-22T05:32:52.247Z,58.67
2019-04-22T05:37:57.990Z,55.22
2019-04-22T05:40:24.353Z,55.01
2019-04-22T05:42:55.996Z,57.54
2019-04-22T05:47:59.383Z,58.61
2019-04-22T05:50:23.909Z,58.05
2019-04-22T05:52:55.372Z,57.48
2019-04-22T05:58:02.783Z,58.42
2019-04-22T06:00:40.416Z,56.79
2019-04-22T06:03:07.001Z,54.99
2019-04-22T06:05:35.930Z,55.83
2019-04-22T06:08:10.238Z,54.52
2019-04-22T06:10:45.383Z,54.16
2019-04-22T06:13:13.972Z,53.20
2019-04-22T06:15:37.290Z,52.33
2019-04-22T06:18:22.584Z,51.66
2019-04-22T06:20:59.477Z,51.46
2019-04-22T06:23:25.644Z,50.98
2019-04-22T06:26:05.261Z,50.17
2019-04-22T06:28:40.638Z,49.14
2019-04-22T06:33:26.062Z,48.03
2019-04-22T06:38:35.891Z,45.53
2019-04-22T06:41:05.798Z,44.06
2019-04-22T06:46:06.304Z,41.59
2019-04-22T06:48:30.103Z,40.82
2019-04-22T06:51:05.223Z,40.47
2019-04-22T06:53:37.445Z,39.98
2019-04-22T06:56:06.660Z,39.80
2019-04-22T06:58:41.061Z,39.20
2019-04-22T07:01:15.771Z,38.29
2019-04-22T07:06:17.606Z,37.80
2019-04-22T07:09:06.009Z,37.09
2019-04-22T07:11:06.247Z,36.42
2019-04-22T07:14:00.229Z,36.61
2019-04-22T07:16:18.745Z,36.04
2019-04-22T07:19:01.906Z,34.46
2019-04-22T07:21:12.691Z,33.31
2019-04-22T07:24:20.058Z,29.65
2019-04-22T07:26:29.100Z,25.03
2019-04-22T07:28:49.833Z,20.63
2019-04-22T07:31:20.920Z,17.66
2019-04-22T07:33:51.380Z,15.66
2019-04-22T07:38:50.789Z,13.01
2019-04-22T07:41:27.012Z,11.79
2019-04-22T07:48:57.644Z,10.64
2019-04-22T07:51:32.709Z,9.77
2019-04-22T07:54:01.071Z,8.77
2019-04-22T07:56:31.748Z,7.54
2019-04-22T07:59:07.369Z,7.42
2019-04-22T08:01:30.843Z,6.76
2019-04-22T08:06:43.569Z,6.79
2019-04-22T08:09:13.917Z,7.17
2019-04-22T08:14:10.487Z,8.31
2019-04-22T08:16:43.924Z,8.72
2019-04-22T08:19:15.757Z,9.33
2019-04-22T08:21:45.476Z,8.71
2019-04-22T08:24:17.865Z,7.83
2019-04-22T08:26:46.739Z,7.00
2019-04-22T08:29:19.125Z,7.39
2019-04-22T08:31:49.233Z,8.44
2019-04-22T08:34:23.328Z,7.48
2019-04-22T08:37:12.012Z,7.75
2019-04-22T08:39:18.678Z,8.43
2019-04-22T08:41:51.288Z,7.82
2019-04-22T08:44:27.941Z,8.06
2019-04-22T08:46:57.865Z,7.14
2019-04-22T08:49:30.191Z,7.76
2019-04-22T08:51:55.676Z,7.21
2019-04-22T08:54:27.864Z,6.85
2019-04-22T08:56:58.297Z,5.87
2019-04-22T08:59:21.799Z,7.48
2019-04-22T09:01:59.359Z,8.58
2019-04-22T09:04:27.875Z,8.77
2019-04-22T09:07:16.634Z,8.60
2019-04-22T09:09:34.040Z,8.56
2019-04-22T09:12:07.869Z,7.27
2019-04-22T09:14:40.627Z,6.96
2019-04-22T09:17:13.336Z,9.25
2019-04-22T09:19:35.229Z,8.34
2019-04-22T09:22:11.258Z,6.78
2019-04-22T09:24:43.852Z,6.78
2019-04-22T09:27:22.493Z,5.72
2019-04-22T09:32:24.858Z,6.42
2019-04-22T09:34:47.337Z,8.19
2019-04-22T09:37:21.030Z,9.52
2019-04-22T09:39:52.229Z,11.12
2019-04-22T09:42:17.446Z,11.12
2019-04-22T09:44:47.311Z,11.83
2019-04-22T09:47:19.254Z,12.17
2019-04-22T09:49:55.253Z,12.21
2019-04-22T09:52:20.639Z,12.30
2019-04-22T09:55:01.578Z,12.35
2019-04-22T09:57:24.665Z,12.13
2019-04-22T10:00:10.906Z,12.86
2019-04-22T10:05:00.147Z,13.94
2019-04-22T10:07:32.466Z,13.51
2019-04-22T10:10:14.367Z,14.18
2019-04-22T10:15:00.529Z,12.16
2019-04-22T10:17:32.258Z,12.97
2019-04-22T10:20:06.706Z,13.54
2019-04-22T10:22:39.361Z,13.23
2019-04-22T10:25:08.264Z,13.04
2019-04-22T10:27:45.623Z,12.85
2019-04-22T10:30:04.573Z,13.15
2019-04-22T10:32:39.609Z,12.99
2019-04-22T10:35:09.300Z,12.99
2019-04-22T10:37:36.586Z,13.25
2019-04-22T10:40:09.874Z,12.96
2019-04-22T10:42:43.379Z,12.88
2019-04-22T10:45:14.499Z,12.70
2019-04-22T10:47:43.870Z,13.42
2019-04-22T10:50:14.692Z,12.89
2019-04-22T10:52:43.926Z,13.25
2019-04-22T10:55:13.802Z,12.81
2019-04-22T10:57:44.244Z,13.00
2019-04-22T11:00:15.452Z,13.41
2019-04-22T11:02:45.700Z,13.17
2019-04-22T11:05:16.684Z,13.19
2019-04-22T11:07:53.898Z,12.86
2019-04-22T11:10:34.602Z,12.23
2019-04-22T11:12:49.367Z,12.68
2019-04-22T11:15:19.272Z,13.42
2019-04-22T11:17:49.516Z,12.70
2019-04-22T11:20:19.879Z,13.12
2019-04-22T11:22:50.936Z,11.83
2019-04-22T11:25:21.654Z,11.81
2019-04-22T11:27:51.448Z,12.23
2019-04-22T11:30:24.196Z,12.88
2019-04-22T11:32:54.108Z,11.90
2019-04-22T11:35:23.859Z,11.59
2019-04-22T11:37:53.113Z,11.60
2019-04-22T11:40:28.560Z,12.33
2019-04-22T11:42:54.463Z,12.05
2019-04-22T11:45:24.090Z,11.83
2019-04-22T11:47:55.173Z,10.46
2019-04-22T11:50:26.121Z,11.76
2019-04-22T11:52:55.930Z,11.46
2019-04-22T11:55:28.654Z,11.70
2019-04-22T11:57:56.493Z,11.08
2019-04-22T12:00:31.005Z,12.43
2019-04-22T12:03:01.083Z,13.57
2019-04-22T12:05:30.316Z,11.03
2019-04-22T12:07:59.561Z,11.34
2019-04-22T12:10:39.717Z,11.25
2019-04-22T12:13:02.101Z,10.84
2019-04-22T12:15:32.902Z,10.25
2019-04-22T12:18:03.707Z,12.62
2019-04-22T12:20:33.103Z,10.71
2019-04-22T12:23:03.239Z,13.40
2019-04-22T12:25:43.371Z,11.97
2019-04-22T12:28:03.675Z,10.53
2019-04-22T12:30:33.396Z,11.79
2019-04-22T12:33:04.275Z,13.16
2019-04-22T12:35:34.622Z,10.96
2019-04-22T12:38:08.436Z,11.45
2019-04-22T12:40:42.463Z,11.41
2019-04-22T12:43:08.708Z,12.40
2019-04-22T12:45:38.580Z,11.53
2019-04-22T12:48:08.714Z,11.37
2019-04-22T12:50:43.419Z,12.85
2019-04-22T12:53:13.862Z,11.43
2019-04-22T12:55:42.029Z,11.62
2019-04-22T12:58:11.846Z,12.17
2019-04-22T13:00:44.929Z,12.76
2019-04-22T13:03:14.344Z,13.77
2019-04-22T13:05:45.150Z,13.90
2019-04-22T13:08:15.727Z,13.35
2019-04-22T13:10:53.336Z,13.63
2019-04-22T13:13:16.149Z,13.37
2019-04-22T13:15:46.795Z,14.08
2019-04-22T13:18:24.832Z,15.19
2019-04-22T13:20:48.479Z,14.96
2019-04-22T13:23:18.149Z,14.62
2019-04-22T13:25:49.099Z,14.59
2019-04-22T13:28:19.075Z,14.59
2019-04-22T13:30:48.672Z,15.16
2019-04-22T13:33:19.174Z,15.00
2019-04-22T13:35:49.856Z,15.25
2019-04-22T13:38:19.290Z,15.76
2019-04-22T13:41:00.932Z,15.47
2019-04-22T13:43:20.769Z,14.43
2019-04-22T13:45:50.162Z,15.08
2019-04-22T13:48:38.208Z,13.52
2019-04-22T13:51:20.797Z,14.72
2019-04-22T13:54:27.246Z,15.12
2019-04-22T13:56:13.157Z,15.36
2019-04-22T13:58:35.762Z,15.71
2019-04-22T14:00:56.652Z,15.80
2019-04-22T14:03:52.222Z,15.72
2019-04-22T14:06:22.665Z,16.40
2019-04-22T14:08:53.328Z,17.05
2019-04-22T14:11:34.561Z,16.56
2019-04-22T14:13:53.696Z,16.43
2019-04-22T14:16:24.518Z,17.21
2019-04-22T14:18:54.034Z,16.46
2019-04-22T14:21:23.277Z,16.24
2019-04-22T14:23:56.427Z,17.10
2019-04-22T14:26:27.102Z,18.06
2019-04-22T14:28:57.551Z,17.19
2019-04-22T14:31:26.944Z,16.78
2019-04-22T14:34:01.366Z,16.78
2019-04-22T14:36:27.595Z,16.61
2019-04-22T14:38:57.786Z,17.11
2019-04-22T14:41:42.362Z,17.09
2019-04-22T14:45:04.982Z,16.62
2019-04-22T14:47:05.768Z,15.43
2019-04-22T14:49:24.078Z,15.22
2019-04-22T14:51:55.062Z,15.79
2019-04-22T14:54:19.445Z,15.90
2019-04-22T15:47:50.219Z,16.40
2019-04-22T15:50:19.639Z,17.02
2019-04-22T15:52:53.034Z,16.12
2019-04-22T15:55:20.736Z,16.10
2019-04-22T15:57:50.097Z,15.71
2019-04-22T16:00:33.157Z,16.49
2019-04-22T16:02:51.967Z,16.93
2019-04-22T16:05:22.519Z,17.19
2019-04-22T16:07:52.961Z,16.22
2019-04-22T16:10:23.820Z,16.35
2019-04-22T16:13:03.520Z,15.92
2019-04-22T16:15:24.729Z,15.84
2019-04-22T16:17:54.987Z,16.32
2019-04-22T16:20:26.036Z,16.10
2019-04-22T16:23:20.277Z,16.08
2019-04-22T16:26:03.103Z,15.83
2019-04-22T16:28:33.449Z,15.82
2019-04-22T16:31:03.847Z,15.19
2019-04-22T16:33:38.387Z,15.48
2019-04-22T16:36:07.078Z,15.96
2019-04-22T16:38:37.244Z,16.53
2019-04-22T16:41:06.801Z,17.14
2019-04-22T16:43:36.610Z,17.11
2019-04-22T16:46:09.736Z,17.31
2019-04-22T16:48:39.963Z,17.16
2019-04-22T16:51:09.890Z,17.32
2019-04-22T16:53:39.312Z,17.30
2019-04-22T16:56:08.869Z,17.00
2019-04-22T16:58:38.857Z,17.48
2019-04-22T17:01:20.740Z,17.84
2019-04-22T17:04:16.513Z,18.43
2019-04-22T17:06:46.011Z,18.77
2019-04-22T17:09:17.611Z,18.52
2019-04-22T17:11:47.784Z,18.40
2019-04-22T17:14:25.427Z,19.10
2019-04-22T17:16:48.620Z,19.51
2019-04-22T17:19:19.259Z,19.96
2019-04-22T17:21:49.951Z,19.97
2019-04-22T17:24:21.799Z,20.33
2019-04-22T17:26:52.997Z,20.49
2019-04-22T17:29:22.811Z,20.59
2019-04-22T17:31:58.391Z,20.38
2019-04-22T17:34:23.488Z,20.99
2019-04-22T17:36:53.207Z,21.28
2019-04-22T17:39:40.414Z,21.31
2019-04-22T17:42:14.015Z,21.27
2019-04-22T17:44:48.140Z,21.74
2019-04-22T17:47:29.026Z,21.72
2019-04-22T17:50:11.734Z,21.90
2019-04-22T17:52:42.343Z,21.97
2019-04-22T17:55:11.326Z,22.41
2019-04-22T17:57:39.383Z,22.76
2019-04-22T18:00:11.271Z,23.16
2019-04-22T18:02:43.007Z,23.53
2019-04-22T18:05:01.991Z,24.28
2019-04-22T18:07:49.313Z,24.67
2019-04-22T18:13:01.740Z,25.15
2019-04-22T18:15:23.869Z,25.69
2019-04-22T18:18:00.536Z,25.77
2019-04-22T18:20:25.430Z,25.82
2019-04-22T18:22:49.035Z,26.19
2019-04-22T18:25:20.349Z,26.10
2019-04-22T18:28:09.060Z,26.30
2019-04-22T18:30:24.200Z,26.45
2019-04-22T18:32:57.059Z,26.87
2019-04-22T18:35:30.856Z,27.36
2019-04-22T18:38:11.314Z,27.68
2019-04-22T18:40:36.296Z,28.29
2019-04-22T18:43:09.950Z,28.52
2019-04-22T18:48:03.948Z,28.97
2019-04-22T18:51:09.605Z,29.19
2019-04-22T18:53:48.379Z,29.43
2019-04-22T18:56:19.227Z,29.53
2019-04-22T18:58:42.114Z,29.52
2019-04-22T19:00:59.684Z,29.67
2019-04-22T19:03:32.153Z,29.84
2019-04-22T19:06:32.286Z,29.86
2019-04-22T19:08:55.499Z,30.26
2019-04-22T19:11:20.885Z,30.26
2019-04-22T19:14:17.600Z,30.35
2019-04-22T19:16:43.355Z,30.48
2019-04-22T19:19:17.835Z,30.47
2019-04-22T19:21:26.029Z,30.65
2019-04-22T19:23:54.070Z,30.76
2019-04-22T19:26:48.241Z,31.00
2019-04-22T19:29:03.899Z,30.95
2019-04-22T19:31:34.710Z,31.07
2019-04-22T19:34:03.023Z,31.37
2019-04-22T19:36:43.538Z,31.47
2019-04-22T19:39:07.992Z,31.48
2019-04-22T19:41:42.260Z,31.51
2019-04-22T19:44:13.170Z,31.71
2019-04-22T19:46:43.469Z,31.97
2019-04-22T19:49:17.050Z,31.96
2019-04-22T19:51:53.917Z,32.13
2019-04-22T19:54:14.045Z,32.31
2019-04-22T19:56:38.387Z,32.40
2019-04-22T19:59:15.002Z,32.63
2019-04-22T20:02:00.964Z,32.77
2019-04-22T20:04:59.645Z,32.97
2019-04-22T20:07:40.097Z,32.78
2019-04-22T20:10:17.218Z,32.91
2019-04-22T20:12:42.894Z,33.02
2019-04-22T20:15:17.025Z,33.20
2019-04-22T20:18:08.615Z,33.29
2019-04-22T20:20:24.582Z,33.33
2019-04-22T20:22:49.443Z,33.52
2019-04-22T20:25:12.351Z,33.53
2019-04-22T20:27:54.690Z,33.82
2019-04-22T20:30:29.290Z,33.94
2019-04-22T20:32:52.461Z,34.21
2019-04-22T20:35:28.114Z,34.54
2019-04-22T20:37:56.759Z,34.63
2019-04-22T20:40:36.104Z,34.74
2019-04-22T20:43:09.165Z,34.89
2019-04-22T20:45:35.155Z,35.03
2019-04-22T20:47:58.809Z,35.15
2019-04-22T20:50:37.333Z,35.53
2019-04-22T20:53:13.390Z,35.66
2019-04-22T20:55:36.853Z,35.76
2019-04-22T20:58:12.214Z,35.79
2019-04-22T21:00:36.573Z,35.96
2019-04-22T21:03:03.233Z,35.95
2019-04-22T21:05:34.182Z,36.15
2019-04-22T21:08:19.020Z,36.37
2019-04-22T21:10:42.568Z,36.57
2019-04-22T21:13:11.121Z,36.47
2019-04-22T21:15:49.378Z,36.70
2019-04-22T21:18:15.115Z,36.82
2019-04-22T21:20:59.250Z,36.82
2019-04-22T21:23:21.380Z,36.86
2019-04-22T21:25:47.424Z,37.10
2019-04-22T21:28:31.205Z,37.39
2019-04-22T21:30:55.160Z,37.48
2019-04-22T21:33:23.588Z,37.56
2019-04-22T21:36:25.120Z,37.63
2019-04-22T21:38:40.386Z,37.66
2019-04-22T21:41:10.014Z,37.74
2019-04-22T21:43:42.530Z,37.80
2019-04-22T21:46:13.432Z,38.08
2019-04-22T21:48:42.652Z,38.14
2019-04-22T21:51:19.198Z,38.32
2019-04-22T21:53:55.499Z,38.14
2019-04-22T21:56:34.905Z,38.19
2019-04-22T21:58:50.670Z,38.19
2019-04-22T22:01:38.123Z,38.48
2019-04-22T22:04:03.311Z,38.40
2019-04-22T22:06:23.567Z,38.63
2019-04-22T22:09:05.839Z,38.66
2019-04-22T22:11:35.135Z,38.61
2019-04-22T22:14:02.441Z,38.91
2019-04-22T22:16:33.573Z,39.17
2019-04-22T22:19:08.169Z,39.31
2019-04-22T22:21:48.349Z,39.39
2019-04-22T22:24:08.961Z,39.67
2019-04-22T22:26:44.788Z,39.75
2019-04-22T22:29:20.196Z,39.90
2019-04-22T22:31:47.063Z,40.46
2019-04-22T22:34:19.163Z,40.52
2019-04-22T22:36:42.151Z,40.36
2019-04-22T22:39:13.264Z,40.50
2019-04-22T22:41:27.878Z,40.64
2019-04-22T22:44:06.956Z,40.86
2019-04-22T22:46:39.229Z,41.16
2019-04-22T22:49:22.955Z,41.47
2019-04-22T22:51:53.250Z,41.67
2019-04-22T22:54:25.144Z,41.85
2019-04-22T22:56:59.678Z,41.78
2019-04-22T22:59:27.536Z,41.95
2019-04-22T23:01:54.510Z,41.85
2019-04-22T23:04:34.233Z,41.98
2019-04-22T23:07:00.422Z,42.02
2019-04-22T23:09:30.608Z,42.13
2019-04-22T23:14:32.741Z,42.51
2019-04-22T23:16:51.443Z,42.33
2019-04-22T23:19:15.698Z,42.80
2019-04-22T23:21:49.962Z,43.04
2019-04-22T23:24:50.109Z,43.03
2019-04-22T23:27:27.309Z,43.42
2019-04-22T23:30:01.195Z,43.25
2019-04-22T23:32:31.931Z,43.28
2019-04-22T23:35:14.434Z,43.46
2019-04-22T23:37:47.580Z,43.80
2019-04-22T23:40:29.689Z,44.05
2019-04-22T23:42:53.032Z,44.36
2019-04-22T23:45:27.051Z,44.47
2019-04-22T23:47:43.493Z,44.83
2019-04-22T23:50:26.691Z,45.22
2019-04-22T23:53:00.576Z,45.00
2019-04-22T23:55:33.449Z,45.11
2019-04-22T23:58:02.690Z,45.13
